Terminal Aerodrome Forecast
Issued by NWS

Current Version | Previous Version | Text Only | Print | Product List | Glossary On
Versions: 1 2 3 4 5 6 7 8 9 10 11 12 13 14 15
000
FTUS43 KDLH 021134
TAFHIB
TAF
KHIB 021134Z 0212/0312 VRB03KT P6SM FEW070
     FM021800 17005KT P6SM FEW200
     FM030500 25004KT P6SM SCT150
     FM031100 27008KT P6SM SCT090=

USA.gov is the U.S. government's official web portal to all federal, state and local government web resources and services.